Time;durP1;ratioP1;P1;durP2;ratioP2;P2;SDS_P1;SDS_P2;PMS_P1;PMS_P2;Temp;Humidity;BMP_temperature;BMP_pressure;BME280_temperature;BME280_humidity;BME280_pressure;Samples;Min_cycle;Max_cycle;Signal;HPM_P1;HPM_P2
2023/09/24 00:08:21;;;;;;;0.63;0.30;;;;;;;19.91;79.09;101892.78;20833221;28;20056;-67
2023/09/24 00:18:23;;;;;;;0.85;0.50;;;;;;;19.89;79.01;101897.44;20817505;28;20045;-67
2023/09/24 00:28:25;;;;;;;0.73;0.20;;;;;;;19.80;79.11;101891.75;20817149;28;20114;-67
2023/09/24 00:38:27;;;;;;;0.40;0.40;;;;;;;19.90;79.01;101909.94;20821463;28;20045;-67
2023/09/24 00:48:29;;;;;;;0.82;0.40;;;;;;;19.79;78.60;101903.56;20820558;28;20468;-67
2023/09/24 00:58:34;;;;;;;0.38;0.20;;;;;;;19.89;78.74;101908.22;20822348;28;20060;-67
2023/09/24 01:08:36;;;;;;;0.47;0.47;;;;;;;19.89;78.81;101922.59;20829627;28;20458;-67
2023/09/24 01:18:39;;;;;;;0.30;0.30;;;;;;;19.88;78.58;101926.28;20805105;28;20132;-67
2023/09/24 01:28:43;;;;;;;0.43;0.38;;;;;;;19.86;78.10;101936.34;20816934;28;20127;-67
2023/09/24 01:38:46;;;;;;;0.68;0.45;;;;;;;19.84;78.07;101936.47;20820155;28;20049;-67
2023/09/24 01:48:54;;;;;;;1.38;0.60;;;;;;;19.80;78.05;101931.44;20822551;28;20053;-67
2023/09/24 01:58:56;;;;;;;0.43;0.43;;;;;;;19.82;77.99;101922.22;20840027;28;20132;-67
2023/09/24 02:08:59;;;;;;;0.85;0.45;;;;;;;19.80;77.67;101928.75;20848542;28;20339;-67
2023/09/24 02:19:02;;;;;;;0.85;0.40;;;;;;;19.78;77.70;101923.44;20872113;28;20495;-67
2023/09/24 02:29:05;;;;;;;0.35;0.35;;;;;;;19.77;77.56;101926.28;20847991;28;20037;-67
2023/09/24 02:39:07;;;;;;;0.38;0.38;;;;;;;19.76;77.28;101936.22;20836464;28;20060;-67
2023/09/24 02:49:08;;;;;;;0.35;0.35;;;;;;;19.75;77.12;101945.31;20834947;28;20399;-67
2023/09/24 02:59:12;;;;;;;0.40;0.40;;;;;;;19.75;77.05;101945.31;20825783;28;20045;-67
2023/09/24 03:09:15;;;;;;;0.43;0.30;;;;;;;19.73;76.76;101957.25;20812752;28;20103;-67
2023/09/24 03:19:16;;;;;;;0.65;0.50;;;;;;;19.71;76.69;101973.56;20832536;28;20085;-67
2023/09/24 03:29:19;;;;;;;0.40;0.40;;;;;;;19.68;76.35;101980.09;20825509;28;20135;-67
2023/09/24 03:39:21;;;;;;;0.63;0.60;;;;;;;19.66;75.88;102000.09;20835823;28;20140;-67
2023/09/24 03:49:23;;;;;;;0.50;0.50;;;;;;;19.64;75.61;101999.34;20877211;28;20068;-67
2023/09/24 03:59:25;;;;;;;0.75;0.50;;;;;;;19.63;75.52;102003.03;20842125;28;20076;-67
2023/09/24 04:09:26;;;;;;;0.85;0.55;;;;;;;19.62;75.48;102014.81;20827758;28;20125;-67
2023/09/24 04:19:32;;;;;;;0.55;0.43;;;;;;;19.59;75.21;102009.66;20823410;28;20072;-67
2023/09/24 04:29:33;;;;;;;0.73;0.73;;;;;;;19.60;74.85;102023.03;20825362;28;20493;-67
2023/09/24 04:39:35;;;;;;;1.13;0.75;;;;;;;19.59;74.71;102020.47;20822130;28;20041;-67
2023/09/24 04:49:37;;;;;;;1.20;0.65;;;;;;;19.58;74.63;102029.56;20826757;28;20480;-67
2023/09/24 04:59:39;;;;;;;0.82;0.70;;;;;;;19.50;74.40;102032.84;20816342;28;20476;-67
2023/09/24 05:09:42;;;;;;;0.90;0.70;;;;;;;19.56;74.43;102054.84;20817320;28;20406;-67
2023/09/24 05:19:44;;;;;;;0.70;0.70;;;;;;;19.54;74.12;102062.22;20819557;28;20064;-67
2023/09/24 05:29:46;;;;;;;2.45;1.00;;;;;;;19.54;74.20;102072.13;20816234;28;20059;-66
2023/09/24 05:39:48;;;;;;;0.90;0.63;;;;;;;19.56;74.17;102080.97;20847608;28;20050;-67
2023/09/24 05:49:51;;;;;;;0.90;0.75;;;;;;;19.56;73.93;102084.56;20817656;28;20111;-67
2023/09/24 05:59:56;;;;;;;1.48;0.90;;;;;;;19.55;73.67;102088.25;20844147;28;20136;-67
2023/09/24 06:10:04;;;;;;;1.63;1.10;;;;;;;19.54;73.61;102105.44;20881579;28;20492;-67
2023/09/24 06:20:06;;;;;;;2.13;0.95;;;;;;;19.53;73.64;102105.53;20885213;28;20052;-67
2023/09/24 06:30:09;;;;;;;1.90;0.90;;;;;;;19.51;73.64;102121.88;20859329;28;20045;-67
2023/09/24 06:40:11;;;;;;;1.20;0.63;;;;;;;19.51;73.60;102132.66;20853775;28;20738;-67
2023/09/24 06:50:13;;;;;;;1.38;0.70;;;;;;;19.55;73.76;102134.16;20812245;28;20076;-67
2023/09/24 07:00:14;;;;;;;0.80;0.80;;;;;;;19.68;73.49;102146.72;20865751;28;20102;-67
2023/09/24 07:10:16;;;;;;;1.65;0.85;;;;;;;20.19;72.02;102158.16;20886714;28;20123;-67
2023/09/24 07:20:20;;;;;;;1.73;0.80;;;;;;;20.11;72.89;102156.91;20866568;28;20291;-67
2023/09/24 07:30:22;;;;;;;1.60;0.98;;;;;;;20.12;73.08;102157.81;20880086;28;20128;-67
2023/09/24 07:40:24;;;;;;;0.73;0.73;;;;;;;20.18;73.04;102184.34;20885142;28;20043;-67
2023/09/24 07:50:26;;;;;;;1.20;1.00;;;;;;;20.27;73.33;102193.56;20855004;28;20049;-67
2023/09/24 08:00:28;;;;;;;1.88;1.00;;;;;;;20.37;73.53;102194.59;20861244;28;20417;-67
2023/09/24 08:10:29;;;;;;;1.80;1.05;;;;;;;20.46;73.69;102214.59;20866653;28;20563;-67
2023/09/24 08:20:31;;;;;;;2.53;1.20;;;;;;;20.53;73.81;102204.19;20880279;28;20471;-67
2023/09/24 08:30:33;;;;;;;1.40;1.02;;;;;;;20.60;73.81;102212.66;20881483;28;20056;-67
2023/09/24 08:40:36;;;;;;;1.13;0.88;;;;;;;20.64;73.85;102223.09;20870603;28;20057;-67
2023/09/24 08:50:41;;;;;;;1.63;0.82;;;;;;;20.69;73.98;102233.56;20847554;28;20052;-67
2023/09/24 09:00:44;;;;;;;1.02;0.80;;;;;;;20.72;74.09;102230.63;20820347;28;20041;-67
2023/09/24 09:10:48;;;;;;;1.58;0.90;;;;;;;20.77;73.89;102222.13;20840572;28;20489;-67
2023/09/24 09:20:51;;;;;;;2.05;0.90;;;;;;;20.78;73.89;102213.88;20856093;28;20049;-67
2023/09/24 09:31:10;;;;;;;2.05;1.00;;;;;;;20.82;73.96;102206.44;20864225;28;20093;-67
2023/09/24 09:41:11;;;;;;;1.02;0.80;;;;;;;20.83;74.02;102211.69;20883311;28;20049;-67
2023/09/24 09:51:16;;;;;;;1.77;1.02;;;;;;;20.86;73.87;102188.94;20875748;28;20113;-67
2023/09/24 10:01:20;;;;;;;2.35;0.93;;;;;;;20.88;74.00;102188.81;20862180;28;20049;-67
2023/09/24 10:11:32;;;;;;;1.98;1.05;;;;;;;20.90;73.62;102185.00;20871546;28;20127;-67
2023/09/24 10:21:38;;;;;;;1.40;0.70;;;;;;;20.88;73.51;102186.09;20880830;28;20064;-67
2023/09/24 10:32:09;;;;;;;2.40;1.05;;;;;;;20.92;73.28;102183.03;20882568;28;20041;-67
2023/09/24 10:42:14;;;;;;;1.75;0.77;;;;;;;20.94;72.98;102196.44;20822197;28;20489;-67
2023/09/24 10:52:16;;;;;;;2.67;0.80;;;;;;;20.89;72.68;102172.47;20841838;28;20072;-67
2023/09/24 11:02:18;;;;;;;2.00;0.90;;;;;;;20.98;72.58;102182.53;20907551;28;20111;-67
2023/09/24 11:12:23;;;;;;;1.70;0.75;;;;;;;21.01;72.53;102165.19;20842144;28;20418;-67
2023/09/24 11:22:26;;;;;;;1.15;0.63;;;;;;;21.05;72.18;102171.19;20870512;28;20048;-67
2023/09/24 11:32:28;;;;;;;1.40;0.70;;;;;;;21.05;71.84;102171.19;20887528;28;20049;-67
2023/09/24 11:42:31;;;;;;;2.53;1.10;;;;;;;21.07;71.60;102159.25;20887388;28;20082;-67
2023/09/24 11:52:33;;;;;;;1.17;0.70;;;;;;;21.09;71.49;102156.41;20886271;28;20056;-67
2023/09/24 12:02:34;;;;;;;1.80;1.00;;;;;;;21.06;71.29;102152.13;20885301;28;20474;-67
2023/09/24 12:12:36;;;;;;;1.33;0.60;;;;;;;21.07;71.32;102150.25;20884641;28;20055;-67
2023/09/24 12:22:42;;;;;;;1.15;0.63;;;;;;;21.03;71.57;102140.69;20883716;28;20115;-67
2023/09/24 12:32:44;;;;;;;1.95;0.80;;;;;;;21.05;71.37;102144.13;20882822;28;20095;-67
2023/09/24 12:42:46;;;;;;;2.28;0.77;;;;;;;21.03;71.30;102136.13;20865056;28;20103;-67
2023/09/24 12:52:48;;;;;;;1.73;0.82;;;;;;;21.03;71.31;102124.44;20818460;28;20055;-68
2023/09/24 13:02:50;;;;;;;0.90;0.50;;;;;;;21.02;71.20;102112.75;20855185;28;20522;-67
2023/09/24 13:12:52;;;;;;;1.05;0.70;;;;;;;21.00;71.06;102115.59;20843067;28;20136;-67
2023/09/24 13:22:54;;;;;;;1.35;0.70;;;;;;;20.97;70.91;102114.97;20862981;28;20045;-67
2023/09/24 13:32:56;;;;;;;1.83;0.90;;;;;;;20.93;70.90;102114.38;20852384;28;20107;-67
2023/09/24 13:42:59;;;;;;;1.73;0.60;;;;;;;20.91;70.74;102110.94;20840341;28;20049;-67
2023/09/24 13:53:00;;;;;;;2.70;0.90;;;;;;;20.88;70.38;102100.38;20808136;28;20045;-68
2023/09/24 14:03:03;;;;;;;1.15;0.80;;;;;;;20.86;70.25;102091.50;20803260;28;20053;-68
2023/09/24 14:13:05;;;;;;;2.97;0.80;;;;;;;20.82;70.34;102092.75;20793673;28;20057;-66
2023/09/24 14:23:06;;;;;;;4.82;0.70;;;;;;;20.79;70.45;102101.13;20809136;28;20136;-68
2023/09/24 14:33:08;;;;;;;1.85;0.60;;;;;;;20.77;70.80;102086.81;20809123;28;20057;-68
2023/09/24 14:43:10;;;;;;;1.38;0.93;;;;;;;20.77;70.82;102086.81;20810678;28;20543;-68
2023/09/24 14:53:12;;;;;;;5.07;1.15;;;;;;;20.76;70.47;102071.56;20811030;28;20456;-68
2023/09/24 15:03:14;;;;;;;2.22;0.90;;;;;;;20.71;69.90;102059.28;20824988;28;20482;-68
2023/09/24 15:13:16;;;;;;;1.90;0.65;;;;;;;20.75;69.57;102062.59;20810633;28;20048;-69
2023/09/24 15:23:20;;;;;;;1.13;0.60;;;;;;;20.75;68.82;102050.91;20804941;28;20993;-68
2023/09/24 15:33:22;;;;;;;0.90;0.65;;;;;;;20.75;68.88;102045.47;20803917;28;20167;-68
2023/09/24 15:43:24;;;;;;;1.23;0.63;;;;;;;20.77;69.35;102043.50;20808716;28;20041;-67
2023/09/24 15:53:26;;;;;;;2.35;0.80;;;;;;;20.84;69.10;102047.47;20817768;28;20062;-67
2023/09/24 16:03:27;;;;;;;2.15;0.90;;;;;;;20.88;68.54;102035.41;20798776;28;20045;-65
2023/09/24 16:13:29;;;;;;;1.10;0.60;;;;;;;20.93;69.01;102027.75;20799543;28;20053;-63
2023/09/24 16:23:31;;;;;;;2.35;0.80;;;;;;;20.99;69.43;102027.22;20822449;28;20614;-63
2023/09/24 16:33:33;;;;;;;1.45;0.90;;;;;;;21.05;69.63;102030.41;20800826;28;20675;-65
2023/09/24 16:43:35;;;;;;;1.80;1.20;;;;;;;21.11;70.92;102040.72;20812224;28;20057;-64
2023/09/24 16:53:37;;;;;;;2.85;1.73;;;;;;;21.20;75.75;102037.22;20819143;28;20114;-66
2023/09/24 17:03:39;;;;;;;2.35;1.02;;;;;;;21.27;78.88;102046.56;20796520;28;20041;-66
2023/09/24 17:13:44;;;;;;;2.88;1.10;;;;;;;21.34;78.31;102046.88;20773358;28;20237;-65
2023/09/24 17:23:46;;;;;;;2.70;1.15;;;;;;;21.39;77.69;102068.16;20787787;28;20049;-64
2023/09/24 17:33:48;;;;;;;2.10;0.90;;;;;;;21.34;76.21;102056.88;20781055;28;20175;-65
2023/09/24 17:43:51;;;;;;;4.75;1.10;;;;;;;21.26;75.58;102055.69;20785382;28;20497;-66
2023/09/24 17:53:52;;;;;;;5.13;1.38;;;;;;;21.24;75.81;102057.66;20794306;28;20068;-67
2023/09/24 18:03:54;;;;;;;3.72;1.10;;;;;;;21.17;75.60;102058.31;20803069;28;20052;-66
2023/09/24 18:13:57;;;;;;;4.65;1.05;;;;;;;21.10;75.37;102068.78;20814239;28;20486;-66
2023/09/24 18:23:59;;;;;;;1.98;0.98;;;;;;;21.05;74.95;102068.31;20879622;28;20045;-66
2023/09/24 18:34:01;;;;;;;2.25;1.10;;;;;;;20.94;74.68;102070.06;20869192;28;20048;-66
2023/09/24 18:44:03;;;;;;;3.05;1.00;;;;;;;20.89;74.58;102071.44;20843138;28;20053;-66
2023/09/24 18:54:05;;;;;;;1.30;1.00;;;;;;;20.81;74.28;102067.53;20840472;28;20057;-66
2023/09/24 19:04:07;;;;;;;2.85;1.02;;;;;;;20.75;74.13;102068.00;20854831;28;20141;-66
2023/09/24 19:14:09;;;;;;;2.78;1.25;;;;;;;20.69;73.75;102049.56;20842394;28;20045;-66
2023/09/24 19:24:10;;;;;;;2.58;1.10;;;;;;;20.64;73.62;102043.69;20845082;28;20048;-66
2023/09/24 19:34:12;;;;;;;3.05;1.20;;;;;;;20.56;73.08;102028.09;20845254;28;20051;-66
2023/09/24 19:44:14;;;;;;;2.40;1.13;;;;;;;20.51;72.49;102020.34;20830031;28;20502;-66
2023/09/24 19:54:16;;;;;;;2.05;1.10;;;;;;;20.46;72.25;102025.25;20825901;28;20490;-66
2023/09/24 20:04:17;;;;;;;2.33;0.90;;;;;;;20.43;72.06;102015.56;20825447;28;20059;-66
2023/09/24 20:14:21;;;;;;;1.70;0.90;;;;;;;20.41;71.94;102006.72;20823089;28;20528;-66
2023/09/24 20:24:23;;;;;;;2.72;1.50;;;;;;;20.42;72.82;101984.09;20830137;28;20044;-66
2023/09/24 20:34:25;;;;;;;2.65;1.13;;;;;;;20.43;74.21;101993.94;20839098;28;20080;-66
2023/09/24 20:44:31;;;;;;;3.58;1.38;;;;;;;20.43;74.14;101980.41;20810483;28;20489;-66
2023/09/24 20:54:33;;;;;;;2.80;1.20;;;;;;;20.41;73.83;101976.97;20838249;28;20395;-66
2023/09/24 21:04:36;;;;;;;1.85;1.10;;;;;;;20.40;73.38;101963.56;20811281;28;20057;-66
2023/09/24 21:14:38;;;;;;;1.83;1.10;;;;;;;20.35;73.02;101969.38;20823173;28;20056;-66
2023/09/24 21:24:40;;;;;;;2.65;1.15;;;;;;;20.29;72.88;101959.91;20831008;28;20092;-66
2023/09/24 21:34:42;;;;;;;1.73;1.10;;;;;;;20.27;73.26;101953.78;20817611;28;20198;-66
2023/09/24 21:44:44;;;;;;;1.95;1.00;;;;;;;20.26;73.14;101940.38;20809768;28;20071;-66
2023/09/24 21:54:46;;;;;;;2.33;1.10;;;;;;;20.25;72.97;101935.94;20804418;28;20046;-66
2023/09/24 22:04:47;;;;;;;1.42;0.90;;;;;;;20.25;72.95;101947.63;20819507;28;20041;-66
2023/09/24 22:14:49;;;;;;;1.65;0.80;;;;;;;20.24;72.64;101935.09;20812057;28;20053;-66
2023/09/24 22:24:51;;;;;;;1.63;0.95;;;;;;;20.10;72.32;101914.59;20807654;28;20073;-66
2023/09/24 22:34:53;;;;;;;2.20;0.80;;;;;;;20.23;72.30;101927.97;20799735;28;20174;-65
2023/09/24 22:44:54;;;;;;;2.10;1.00;;;;;;;20.22;71.92;101942.47;20836697;28;20053;-66
2023/09/24 22:54:56;;;;;;;1.63;0.93;;;;;;;20.21;71.87;101934.47;20807295;28;20064;-66
2023/09/24 23:04:58;;;;;;;1.85;0.90;;;;;;;20.20;71.44;101920.13;20815710;28;20162;-65
2023/09/24 23:15:05;;;;;;;;;;;;;;;20.19;71.33;101906.72;20809698;28;20500;-66
2023/09/24 23:25:07;;;;;;;0.90;0.70;;;;;;;20.14;71.36;101897.13;20810795;28;19921;-66
2023/09/24 23:35:09;;;;;;;0.98;0.80;;;;;;;20.16;71.19;101902.44;20836627;28;20049;-66
2023/09/24 23:45:12;;;;;;;1.90;0.70;;;;;;;20.10;70.85;101894.81;20814770;28;20060;-65
2023/09/24 23:55:14;;;;;;;1.35;0.88;;;;;;;20.13;70.85;101898.13;20809739;28;22083;-66
